Terminal Aerodrome Forecast
Issued by NWS

Home | Current Version | Previous Version | Graphics & Text | Print | Product List | Glossary Off
Versions: 1 2 3 4 5 6 7 8 9 10 11 12 13 14 15 16 17 18 19 20

000
FTUS43 KGRB 212300
TAFAUW
TAF
KAUW 212332Z 2200/2224 16010KT 3SM BR OVC008
      TEMPO 2200/2204 1SM -FZDZSN BR OVC003
     FM220400 16010KT 2SM BR OVC005
      TEMPO 2204/2208 1SM -FZDZSN BR OVC002
     FM221000 13008KT 2SM BR OVC003
     FM221600 12008KT 5SM BR OVC006=

USA.gov is the U.S. government's official web portal to all federal, state and local government web resources and services.